Time;durP1;ratioP1;P1;durP2;ratioP2;P2;SDS_P1;SDS_P2;PMS_P1;PMS_P2;Temp;Humidity;BMP_temperature;BMP_pressure;BME280_temperature;BME280_humidity;BME280_pressure;Samples;Min_cycle;Max_cycle;Signal;HPM_P1;HPM_P2
2023/03/29 00:00:18;;;;;;;1.92;1.63;;;;;;;7.57;55.56;97104.38;6213025;23;20017;-81
2023/03/29 00:05:47;;;;;;;3.03;1.53;;;;;;;7.52;55.46;97093.59;6214165;22;20024;-91
2023/03/29 00:08:28;;;;;;;2.53;1.52;;;;;;;7.49;54.97;97088.72;6213280;23;20025;-89
2023/03/29 00:11:06;;;;;;;1.48;1.38;;;;;;;7.44;54.74;97089.19;6213127;23;20020;-89
2023/03/29 00:13:46;;;;;;;2.28;1.33;;;;;;;7.41;54.55;97099.84;6202484;23;20016;-91
2023/03/29 00:16:28;;;;;;;2.08;1.60;;;;;;;7.35;54.81;97098.66;6183092;23;20009;-90
2023/03/29 00:19:06;;;;;;;1.70;1.60;;;;;;;7.30;55.83;97092.28;6183090;23;20006;-90
2023/03/29 00:21:48;;;;;;;3.53;2.00;;;;;;;7.31;57.80;97097.34;6182699;23;20021;-90
2023/03/29 00:27:25;;;;;;;4.85;1.63;;;;;;;7.28;56.27;97076.88;6183066;23;20041;-91
2023/03/29 00:30:02;;;;;;;3.47;2.10;;;;;;;7.20;56.39;97077.63;6183171;23;20025;-90
2023/03/29 00:32:45;;;;;;;2.08;1.80;;;;;;;7.09;56.73;97064.06;6177941;23;20033;-90
2023/03/29 00:35:23;;;;;;;2.30;2.10;;;;;;;7.06;56.25;97051.38;6183115;23;20032;-89
2023/03/29 00:37:57;;;;;;;2.72;2.22;;;;;;;7.04;57.59;97043.75;6183255;23;20032;-90
2023/03/29 00:40:48;;;;;;;1.92;1.80;;;;;;;7.11;59.75;97041.38;6182984;23;20013;-90
2023/03/29 00:43:30;;;;;;;2.60;1.90;;;;;;;7.22;58.75;97033.38;6182454;23;20018;-87
2023/03/29 00:46:09;;;;;;;2.55;1.80;;;;;;;7.26;59.12;97024.31;6183025;23;20048;-90
2023/03/29 00:48:54;;;;;;;2.90;2.13;;;;;;;7.26;57.19;97032.09;6182942;23;20005;-90
2023/03/29 00:51:29;;;;;;;2.53;1.80;;;;;;;7.22;58.01;97028.19;6182929;23;20016;-90
2023/03/29 00:57:02;;;;;;;2.85;1.60;;;;;;;7.26;59.40;97021.72;6181630;23;20062;-91
2023/03/29 00:59:44;;;;;;;3.65;2.25;;;;;;;7.25;60.04;97019.28;6182865;23;20009;-89
2023/03/29 01:02:22;;;;;;;2.63;1.92;;;;;;;7.23;59.09;97022.00;6184678;23;20017;-90
2023/03/29 01:05:04;;;;;;;3.25;2.22;;;;;;;7.22;62.81;97025.59;6184689;23;20013;-90
2023/03/29 01:07:46;;;;;;;4.30;1.92;;;;;;;7.22;59.96;97017.78;6184944;23;20009;-91
2023/03/29 01:10:33;;;;;;;3.88;2.08;;;;;;;7.19;61.71;97016.31;6184919;23;20002;-91
2023/03/29 01:13:11;;;;;;;2.60;2.33;;;;;;;7.20;61.03;97014.53;6184772;23;20006;-90
2023/03/29 01:15:51;;;;;;;3.00;2.30;;;;;;;7.19;59.26;97012.88;6184881;23;20009;-89
2023/03/29 01:18:30;;;;;;;2.97;1.65;;;;;;;7.21;62.24;97001.41;6184940;23;20123;-89
2023/03/29 01:21:21;;;;;;;2.03;1.70;;;;;;;7.28;63.33;97004.22;6184626;23;20036;-90
2023/03/29 01:24:42;;;;;;;2.40;1.70;;;;;;;7.32;61.75;97010.72;6184765;23;20005;-89
2023/03/29 01:27:28;;;;;;;1.58;1.48;;;;;;;7.29;60.82;97002.44;6095352;23;20050;-91
2023/03/29 01:30:12;;;;;;;3.22;2.00;;;;;;;7.24;59.94;97000.31;6177897;23;20037;-90
2023/03/29 01:32:55;;;;;;;1.92;1.75;;;;;;;7.15;60.72;97003.78;6184440;23;20021;-90
2023/03/29 01:35:36;;;;;;;3.88;1.88;;;;;;;7.14;60.53;97000.38;6184714;23;20009;-90
2023/03/29 01:38:28;;;;;;;4.88;2.08;;;;;;;7.13;63.00;96990.16;6184703;23;20017;-91
2023/03/29 01:41:28;;;;;;;1.95;1.77;;;;;;;7.11;60.36;96981.72;6176739;23;20013;-91
2023/03/29 01:44:07;;;;;;;3.05;2.13;;;;;;;7.06;62.67;96978.75;6184570;23;20013;-90
2023/03/29 01:46:56;;;;;;;6.55;2.20;;;;;;;7.03;61.09;96979.06;6184647;23;20203;-89
2023/03/29 01:49:41;;;;;;;2.63;1.60;;;;;;;6.95;61.18;96970.25;6184429;23;20057;-90
2023/03/29 01:52:25;;;;;;;2.88;2.15;;;;;;;6.93;61.83;96968.75;6184306;23;20054;-91
2023/03/29 01:55:16;;;;;;;2.53;1.77;;;;;;;6.87;62.36;96964.19;6184196;23;20044;-89
2023/03/29 01:58:02;;;;;;;1.73;1.63;;;;;;;6.81;61.36;96956.00;6184594;23;20006;-91
2023/03/29 02:00:52;;;;;;;2.42;2.20;;;;;;;6.77;62.34;96943.50;6184383;23;20037;-91
2023/03/29 02:03:41;;;;;;;2.13;1.88;;;;;;;6.77;62.80;96953.88;6183969;23;20006;-89
2023/03/29 02:12:01;;;;;;;3.42;1.95;;;;;;;6.60;62.95;96940.78;6173079;23;20008;-91
2023/03/29 02:14:39;;;;;;;2.40;1.55;;;;;;;6.60;63.35;96937.34;6184169;23;20009;-90
2023/03/29 02:17:22;;;;;;;2.58;2.38;;;;;;;6.60;62.68;96933.00;6184206;23;20065;-91
2023/03/29 02:20:12;;;;;;;2.05;1.70;;;;;;;6.57;62.54;96930.69;6184199;23;20009;-90
2023/03/29 02:22:57;;;;;;;;;;;;;;;6.54;62.37;96936.19;6184598;23;20054;-90
2023/03/29 02:25:35;;;;;;;3.92;2.13;;;;;;;6.45;62.25;96929.28;6184385;23;19948;-89
2023/03/29 02:28:16;;;;;;;2.83;2.10;;;;;;;6.41;63.41;96933.16;6184279;23;20037;-91
2023/03/29 02:31:05;;;;;;;3.45;2.15;;;;;;;6.42;63.85;96926.19;6184283;23;20009;-90
2023/03/29 02:33:46;;;;;;;5.07;2.33;;;;;;;6.40;62.95;96932.31;6183890;23;20001;-90
2023/03/29 02:36:27;;;;;;;6.97;3.33;;;;;;;6.33;64.83;96926.09;6184236;23;20029;-91
2023/03/29 02:42:01;;;;;;;5.15;3.95;;;;;;;6.25;62.99;96912.25;6182846;23;20017;-90
2023/03/29 02:44:42;;;;;;;7.63;5.38;;;;;;;6.21;63.65;96922.09;6183891;23;20013;-90
2023/03/29 02:47:25;;;;;;;5.63;3.17;;;;;;;6.17;64.61;96915.56;6183970;23;20001;-89
2023/03/29 02:50:03;;;;;;;8.23;3.55;;;;;;;6.15;63.87;96901.94;6184022;23;20050;-91
2023/03/29 02:52:54;;;;;;;5.78;3.72;;;;;;;6.15;64.16;96901.94;6183816;23;20020;-90
2023/03/29 02:55:33;;;;;;;4.50;3.28;;;;;;;6.16;63.45;96886.25;6184123;23;20018;-89
2023/03/29 02:58:15;;;;;;;5.28;3.45;;;;;;;6.15;63.67;96881.22;6183795;23;20033;-90
2023/03/29 03:00:58;;;;;;;6.65;4.07;;;;;;;6.17;65.06;96881.91;6183736;23;20019;-91
2023/03/29 03:03:38;;;;;;;3.58;3.05;;;;;;;6.17;65.32;96864.59;6183572;23;20072;-90
2023/03/29 03:08:55;;;;;;;3.50;2.92;;;;;;;6.18;64.14;96845.47;6183769;23;20041;-90
2023/03/29 03:11:38;;;;;;;7.40;3.17;;;;;;;6.15;63.57;96861.31;6183659;23;20045;-91
2023/03/29 03:14:21;;;;;;;3.55;2.85;;;;;;;6.09;63.72;96856.72;6183676;23;20074;-90
2023/03/29 03:19:45;;;;;;;3.50;3.00;;;;;;;5.92;63.99;96855.72;6182865;23;20009;-90
2023/03/29 03:22:21;;;;;;;5.28;3.35;;;;;;;5.87;63.75;96855.34;6183525;23;20009;-90
2023/03/29 03:25:01;;;;;;;6.28;3.42;;;;;;;5.87;64.36;96862.31;6183553;23;20013;-89
2023/03/29 03:27:37;;;;;;;5.22;3.78;;;;;;;5.86;64.42;96855.47;6183671;23;20028;-91
2023/03/29 03:30:17;;;;;;;5.65;3.90;;;;;;;5.84;64.56;96842.69;6183605;23;20010;-90
2023/03/29 03:32:53;;;;;;;5.20;3.42;;;;;;;5.82;64.52;96861.94;6183562;23;20033;-89
2023/03/29 03:35:29;;;;;;;4.05;3.45;;;;;;;5.81;64.15;96862.88;6183447;23;20009;-92
2023/03/29 03:38:11;;;;;;;4.97;3.38;;;;;;;5.77;64.65;96863.19;6183817;23;20006;-89
2023/03/29 03:40:50;;;;;;;3.63;3.08;;;;;;;5.73;64.50;96856.66;6183446;23;20002;-88
2023/03/29 03:43:21;;;;;;;5.00;3.72;;;;;;;5.71;65.32;96845.63;6183309;23;20009;-89
2023/03/29 03:45:51;;;;;;;4.97;3.70;;;;;;;5.71;65.29;96847.41;6183071;23;20012;-89
2023/03/29 03:48:31;;;;;;;5.68;3.55;;;;;;;5.70;64.58;96848.34;6183469;23;20012;-91
2023/03/29 03:51:11;;;;;;;7.03;3.85;;;;;;;5.70;64.59;96844.00;6183349;23;20032;-90
2023/03/29 03:53:48;;;;;;;4.85;3.40;;;;;;;5.69;64.97;96839.78;6183453;23;20005;-91
2023/03/29 03:56:29;;;;;;;6.90;3.58;;;;;;;5.70;65.17;96841.41;6183545;23;20053;-90
2023/03/29 03:59:13;;;;;;;6.78;3.97;;;;;;;5.73;64.62;96833.38;6183505;23;20037;-90
2023/03/29 04:02:06;;;;;;;5.55;3.75;;;;;;;5.74;64.95;96834.97;6183133;23;20013;-90
2023/03/29 04:04:46;;;;;;;6.00;3.70;;;;;;;5.76;64.57;96830.47;6183052;23;20018;-90
2023/03/29 04:07:36;;;;;;;6.97;3.60;;;;;;;5.76;63.89;96825.28;6182984;23;20002;-90
2023/03/29 04:13:10;;;;;;;4.53;3.08;;;;;;;5.78;64.10;96828.56;6181529;23;20013;-90
2023/03/29 04:16:03;;;;;;;7.70;3.72;;;;;;;5.81;63.69;96824.84;6182926;23;20010;-89
2023/03/29 04:19:15;;;;;;;5.13;3.50;;;;;;;5.86;63.94;96825.25;6179428;23;20061;-90
2023/03/29 04:21:51;;;;;;;5.28;3.63;;;;;;;5.87;63.61;96820.88;6180897;23;20013;-91
2023/03/29 04:24:25;;;;;;;6.88;4.55;;;;;;;5.91;63.50;96822.22;6180441;23;20009;-90
2023/03/29 04:27:02;;;;;;;4.97;3.70;;;;;;;5.92;63.65;96829.00;6181047;23;20009;-88
2023/03/29 04:29:45;;;;;;;5.05;3.67;;;;;;;5.93;64.77;96821.09;6182612;23;20013;-89
2023/03/29 04:32:19;;;;;;;5.45;3.83;;;;;;;5.95;63.64;96819.22;6182678;23;20027;-90
2023/03/29 04:34:57;;;;;;;5.90;3.60;;;;;;;5.92;64.08;96819.47;6182458;23;20017;-90
2023/03/29 04:37:39;;;;;;;5.85;4.30;;;;;;;5.91;63.89;96824.81;6182941;23;20006;-91
2023/03/29 04:43:03;;;;;;;5.28;3.85;;;;;;;5.88;64.00;96827.66;6179975;23;20024;-90
2023/03/29 04:48:23;;;;;;;6.30;3.92;;;;;;;5.85;64.16;96825.38;6181126;23;20009;-89
2023/03/29 04:51:04;;;;;;;5.60;4.50;;;;;;;5.85;64.29;96827.97;6182782;23;20021;-90
2023/03/29 04:53:36;;;;;;;7.00;4.63;;;;;;;5.82;64.98;96833.47;6182652;23;20029;-89
2023/03/29 04:56:10;;;;;;;10.27;5.07;;;;;;;5.82;64.59;96834.25;6182804;23;20044;-91
2023/03/29 04:58:49;;;;;;;11.13;5.70;;;;;;;5.76;64.36;96832.25;6182695;23;20010;-89
2023/03/29 05:01:25;;;;;;;8.25;5.80;;;;;;;5.71;64.70;96842.25;6182581;23;20029;-88
2023/03/29 05:04:02;;;;;;;6.25;5.05;;;;;;;5.65;64.68;96843.63;6182427;23;20928;-91
2023/03/29 05:06:35;;;;;;;7.35;5.07;;;;;;;5.57;64.67;96843.53;6182888;23;20036;-90
2023/03/29 05:09:12;;;;;;;8.05;5.80;;;;;;;5.51;65.09;96834.56;6182563;23;20032;-91
2023/03/29 05:11:48;;;;;;;7.72;5.32;;;;;;;5.48;64.92;96834.03;6182896;23;20021;-91
2023/03/29 05:14:22;;;;;;;10.63;5.25;;;;;;;5.45;65.13;96837.72;6182912;23;20028;-90
2023/03/29 05:17:04;;;;;;;8.00;4.95;;;;;;;5.44;65.66;96836.09;6182492;23;20057;-90
2023/03/29 05:19:40;;;;;;;8.70;4.90;;;;;;;5.46;64.86;96838.53;6182605;23;20009;-88
2023/03/29 05:22:14;;;;;;;6.13;4.70;;;;;;;5.49;65.50;96844.25;6177054;23;20009;-90
2023/03/29 05:24:50;;;;;;;8.52;5.13;;;;;;;5.52;65.39;96832.78;6182308;23;20001;-90
2023/03/29 05:27:24;;;;;;;7.63;5.47;;;;;;;5.58;66.04;96835.63;6182357;23;20013;-91
2023/03/29 05:29:53;;;;;;;7.47;5.03;;;;;;;5.64;65.33;96842.00;6182206;23;20008;-91
2023/03/29 05:32:27;;;;;;;9.45;5.10;;;;;;;5.67;65.32;96828.75;6182112;23;20013;-89
2023/03/29 05:35:04;;;;;;;10.02;4.30;;;;;;;5.72;64.87;96834.31;6182527;23;20044;-88
2023/03/29 05:37:38;;;;;;;6.22;4.65;;;;;;;5.79;64.70;96829.34;6182160;23;20021;-90
2023/03/29 05:40:09;;;;;;;5.85;4.32;;;;;;;5.85;64.34;96828.78;6182630;23;20006;-89
2023/03/29 05:42:37;;;;;;;7.20;4.20;;;;;;;5.91;64.74;96825.63;6182140;23;20009;-90
2023/03/29 05:45:08;;;;;;;7.82;3.70;;;;;;;5.97;64.25;96822.47;6165399;23;20024;-82
2023/03/29 05:47:37;;;;;;;9.15;4.30;;;;;;;6.02;65.40;96832.38;6161778;23;20013;-83
2023/03/29 05:50:08;;;;;;;6.80;3.95;;;;;;;6.07;64.27;96832.75;6163728;23;20017;-83
2023/03/29 05:52:36;;;;;;;6.53;4.00;;;;;;;6.13;64.14;96833.94;6162640;23;20057;-84
2023/03/29 05:55:04;;;;;;;5.78;4.28;;;;;;;6.19;64.63;96831.56;6161745;23;20478;-84
2023/03/29 05:57:35;;;;;;;3.63;3.22;;;;;;;6.27;63.50;96822.25;6161510;23;20026;-85
2023/03/29 06:00:16;;;;;;;7.07;3.30;;;;;;;6.31;63.15;96818.38;6163681;23;20096;-86
2023/03/29 06:02:45;;;;;;;5.38;3.90;;;;;;;6.37;62.64;96828.16;6162784;23;20044;-82
2023/03/29 06:05:13;;;;;;;4.95;3.78;;;;;;;6.38;62.59;96822.84;6160921;23;20391;-87
2023/03/29 06:07:41;;;;;;;5.78;4.20;;;;;;;6.43;62.45;96832.75;6162796;23;20555;-84
2023/03/29 06:10:09;;;;;;;9.18;3.97;;;;;;;6.45;62.22;96819.63;6162454;23;20022;-85
2023/03/29 06:12:37;;;;;;;4.55;2.78;;;;;;;6.48;62.01;96817.56;6162173;23;20017;-87
2023/03/29 06:15:05;;;;;;;7.05;4.43;;;;;;;6.51;62.10;96819.84;6163120;23;20021;-86
2023/03/29 06:17:33;;;;;;;10.95;5.53;;;;;;;6.56;62.02;96817.63;6161554;23;20415;-86
2023/03/29 06:20:05;;;;;;;10.15;5.88;;;;;;;6.60;62.05;96813.78;6160442;23;20026;-83
2023/03/29 06:22:33;;;;;;;9.25;3.38;;;;;;;6.66;61.98;96814.13;6160458;23;20014;-88
2023/03/29 06:25:00;;;;;;;4.80;3.05;;;;;;;6.72;61.89;96823.88;6159480;23;20032;-79
2023/03/29 06:27:28;;;;;;;4.15;3.22;;;;;;;6.78;61.85;96823.28;6160181;23;20109;-82
2023/03/29 06:29:55;;;;;;;3.83;3.00;;;;;;;6.83;61.73;96823.63;6159887;23;20022;-84
2023/03/29 06:32:23;;;;;;;5.00;3.58;;;;;;;6.87;61.01;96827.56;6158974;23;20018;-87
2023/03/29 06:34:50;;;;;;;4.78;3.50;;;;;;;6.90;60.90;96826.44;6160094;23;20072;-87
2023/03/29 06:37:20;;;;;;;4.25;3.47;;;;;;;6.95;60.75;96840.56;6159086;23;20186;-84
2023/03/29 06:39:51;;;;;;;6.70;3.15;;;;;;;7.00;60.71;96835.72;6160034;23;20024;-88
2023/03/29 06:42:20;;;;;;;6.55;3.15;;;;;;;7.06;60.43;96838.66;6160623;23;20021;-87
2023/03/29 06:44:49;;;;;;;6.32;3.67;;;;;;;7.11;59.94;96832.06;6160455;23;20033;-82
2023/03/29 06:47:17;;;;;;;5.80;2.90;;;;;;;7.16;61.19;96839.38;6159992;23;20029;-85
2023/03/29 06:49:44;;;;;;;5.15;3.03;;;;;;;7.21;61.79;96839.72;6159785;23;20021;-84
2023/03/29 06:52:12;;;;;;;5.07;2.90;;;;;;;7.26;60.62;96845.28;6161288;23;20025;-86
2023/03/29 06:54:41;;;;;;;4.53;3.10;;;;;;;7.34;61.65;96840.09;6161064;23;20028;-81
2023/03/29 06:57:09;;;;;;;5.72;2.83;;;;;;;7.40;60.64;96842.09;6160693;23;20108;-85
2023/03/29 06:59:36;;;;;;;3.88;2.30;;;;;;;7.50;60.24;96846.34;6159986;23;20025;-83
2023/03/29 07:02:04;;;;;;;7.03;3.75;;;;;;;7.56;59.87;96840.53;6158623;23;20116;-81
2023/03/29 07:04:33;;;;;;;4.75;2.55;;;;;;;7.62;59.36;96855.47;6159277;23;20033;-81
2023/03/29 07:07:02;;;;;;;5.30;2.25;;;;;;;7.65;59.15;96855.16;6159759;23;20024;-87
2023/03/29 07:09:30;;;;;;;4.18;2.35;;;;;;;7.70;59.99;96852.91;6157340;23;20368;-84
2023/03/29 07:12:00;;;;;;;2.95;1.80;;;;;;;7.75;59.09;96861.03;6159698;23;20419;-83
2023/03/29 07:14:28;;;;;;;3.47;2.00;;;;;;;7.80;59.13;96856.19;6158858;23;20053;-81
2023/03/29 07:16:57;;;;;;;3.72;1.90;;;;;;;7.88;58.60;96859.78;6159243;23;20048;-85
2023/03/29 07:19:26;;;;;;;3.78;2.25;;;;;;;7.95;59.18;96858.19;6159300;23;20025;-83
2023/03/29 07:21:54;;;;;;;4.57;1.80;;;;;;;8.01;61.36;96865.34;6160073;23;20064;-87
2023/03/29 07:24:22;;;;;;;3.67;2.08;;;;;;;8.05;62.17;96872.66;6160196;23;20077;-87
2023/03/29 07:26:51;;;;;;;3.45;2.03;;;;;;;8.11;60.32;96875.56;6160057;23;20021;-86
2023/03/29 07:29:32;;;;;;;3.35;2.20;;;;;;;8.14;58.83;96870.09;6160907;23;20758;-87
2023/03/29 07:31:59;;;;;;;3.85;1.70;;;;;;;8.18;59.67;96872.19;6160887;23;20392;-87
2023/03/29 07:34:28;;;;;;;3.78;1.60;;;;;;;8.22;58.65;96881.31;6159850;23;20028;-87
2023/03/29 07:36:56;;;;;;;3.13;1.42;;;;;;;8.26;58.23;96879.19;6160220;23;20022;-86
2023/03/29 07:39:25;;;;;;;2.80;1.85;;;;;;;8.32;59.16;96882.94;6159898;23;20018;-85
2023/03/29 07:41:52;;;;;;;2.17;1.65;;;;;;;8.38;59.97;96877.09;6160363;23;20049;-87
2023/03/29 07:44:20;;;;;;;2.00;1.45;;;;;;;8.42;60.06;96884.44;6161412;23;20423;-85
2023/03/29 07:46:49;;;;;;;2.40;1.73;;;;;;;8.44;58.48;96879.91;6161257;23;20021;-86
2023/03/29 07:49:16;;;;;;;6.78;2.30;;;;;;;8.47;58.25;96878.75;6162334;23;20036;-85
2023/03/29 07:51:48;;;;;;;6.00;1.80;;;;;;;8.53;60.17;96888.53;6161610;23;20080;-85
2023/03/29 07:54:15;;;;;;;6.68;2.22;;;;;;;8.60;60.07;96886.88;6161549;23;20471;-85
2023/03/29 07:56:43;;;;;;;3.38;1.98;;;;;;;8.64;59.04;96888.19;6160572;23;20027;-85
2023/03/29 07:59:11;;;;;;;4.50;1.80;;;;;;;8.68;57.88;96891.28;6160226;23;20022;-87
2023/03/29 08:01:39;;;;;;;3.22;1.40;;;;;;;8.73;58.48;96885.59;6160224;23;20093;-86
2023/03/29 08:04:09;;;;;;;2.60;1.48;;;;;;;8.76;56.86;96886.06;6160835;23;20045;-85
2023/03/29 08:06:39;;;;;;;2.58;1.63;;;;;;;8.81;58.75;96895.97;6158853;23;20027;-82
2023/03/29 08:09:11;;;;;;;1.30;1.20;;;;;;;8.85;59.12;96898.13;6157776;23;20021;-82
2023/03/29 08:11:40;;;;;;;4.38;1.52;;;;;;;8.91;58.37;96894.03;6158307;23;20018;-86
2023/03/29 08:14:08;;;;;;;2.35;1.33;;;;;;;8.96;59.15;96896.13;6163337;23;20045;-85
2023/03/29 08:16:39;;;;;;;7.10;1.85;;;;;;;9.01;56.64;96893.88;6162654;23;20021;-86
2023/03/29 08:19:15;;;;;;;3.55;1.30;;;;;;;9.04;57.66;96889.13;6164020;23;20032;-88
2023/03/29 08:21:44;;;;;;;2.53;1.38;;;;;;;9.11;57.58;96891.91;6162442;23;20107;-89
2023/03/29 08:24:19;;;;;;;1.75;1.33;;;;;;;9.17;58.07;96893.03;6161836;23;20359;-88
2023/03/29 08:26:53;;;;;;;1.83;1.27;;;;;;;9.21;56.05;96889.13;6162917;23;20135;-87
2023/03/29 08:29:21;;;;;;;1.92;1.60;;;;;;;9.26;58.62;96892.03;6160822;23;20112;-89
2023/03/29 08:31:49;;;;;;;2.20;1.20;;;;;;;9.30;58.86;96892.53;6161194;23;20021;-87
2023/03/29 08:34:20;;;;;;;1.48;1.17;;;;;;;9.33;58.69;96879.16;6161004;23;20053;-91
2023/03/29 08:36:48;;;;;;;1.67;1.33;;;;;;;9.36;58.06;96881.44;6160751;23;20017;-84
2023/03/29 08:39:16;;;;;;;3.67;1.42;;;;;;;9.42;56.37;96888.56;6159888;23;20069;-83
2023/03/29 08:41:59;;;;;;;4.25;1.33;;;;;;;9.48;55.71;96888.72;6161688;23;20068;-85
2023/03/29 08:44:48;;;;;;;3.25;1.35;;;;;;;9.55;58.95;96890.66;6160535;23;20459;-83
2023/03/29 08:47:20;;;;;;;1.42;1.17;;;;;;;9.61;57.82;96890.00;6161076;23;20018;-85
2023/03/29 08:49:53;;;;;;;3.28;1.50;;;;;;;9.63;57.38;96888.03;6159827;23;20033;-86
2023/03/29 08:52:27;;;;;;;2.03;1.30;;;;;;;9.63;57.25;96883.63;6159931;23;20052;-84
2023/03/29 08:54:58;;;;;;;3.05;1.50;;;;;;;9.64;56.36;96889.63;6159454;23;20026;-83
2023/03/29 08:57:30;;;;;;;1.80;1.13;;;;;;;9.66;58.35;96893.72;6162148;23;20022;-83
2023/03/29 09:00:00;;;;;;;1.42;1.05;;;;;;;9.69;56.14;96892.56;6160741;23;20102;-86
2023/03/29 09:02:33;;;;;;;3.85;1.35;;;;;;;9.73;57.91;96893.88;6160020;23;20037;-86
2023/03/29 09:05:09;;;;;;;2.67;1.70;;;;;;;9.76;57.52;96895.31;6160220;23;20024;-86
2023/03/29 09:07:36;;;;;;;2.28;1.60;;;;;;;9.78;56.49;96896.75;6160252;23;20021;-87
2023/03/29 09:10:04;;;;;;;3.88;1.52;;;;;;;9.84;56.55;96900.50;6160806;23;20017;-87
2023/03/29 09:12:49;;;;;;;3.75;1.90;;;;;;;9.90;55.81;96907.59;6160189;23;20041;-84
2023/03/29 09:15:22;;;;;;;3.33;1.15;;;;;;;9.96;55.17;96903.53;6158891;23;20104;-87
2023/03/29 09:18:01;;;;;;;1.98;1.30;;;;;;;9.99;54.85;96890.97;6158928;23;20022;-84
2023/03/29 09:20:44;;;;;;;2.13;1.27;;;;;;;10.04;56.96;96895.69;6159438;23;20022;-85
2023/03/29 09:23:44;;;;;;;2.42;1.52;;;;;;;10.07;54.84;96892.72;6160961;23;20097;-85
2023/03/29 09:26:22;;;;;;;4.50;1.38;;;;;;;10.09;54.66;96888.16;6162089;23;20025;-88
2023/03/29 09:29:03;;;;;;;1.58;1.27;;;;;;;10.12;56.28;96890.41;6161793;23;20017;-88
2023/03/29 09:31:36;;;;;;;5.30;1.77;;;;;;;10.17;54.47;96884.69;6161548;23;20526;-88
2023/03/29 09:34:08;;;;;;;;;;;;;;;10.21;53.98;96884.19;6161839;23;20021;-83
2023/03/29 09:36:45;;;;;;;2.47;1.83;;;;;;;10.21;55.24;96886.78;6161691;23;19947;-80
2023/03/29 09:39:15;;;;;;;3.25;1.80;;;;;;;10.20;54.22;96882.53;6161443;23;20017;-87
2023/03/29 09:41:48;;;;;;;3.67;1.55;;;;;;;10.23;55.32;96883.97;6160679;23;20021;-85
2023/03/29 09:44:20;;;;;;;2.85;1.77;;;;;;;10.27;54.84;96885.25;6162029;23;20451;-80
2023/03/29 09:47:05;;;;;;;3.00;1.42;;;;;;;10.30;54.55;96879.75;6161646;23;20077;-81
2023/03/29 09:49:39;;;;;;;5.45;1.92;;;;;;;10.35;54.59;96887.06;6162671;23;20024;-84
2023/03/29 09:52:15;;;;;;;2.55;1.85;;;;;;;10.38;57.12;96871.06;6168838;23;20025;-88
2023/03/29 09:54:45;;;;;;;4.13;2.08;;;;;;;10.40;54.63;96876.91;6168138;23;20021;-84
2023/03/29 09:57:21;;;;;;;3.53;1.60;;;;;;;10.44;56.08;96862.53;6162916;23;20053;-83
2023/03/29 09:59:51;;;;;;;2.13;1.33;;;;;;;10.48;53.82;96871.63;6162553;23;20367;-81
2023/03/29 10:02:20;;;;;;;2.13;1.58;;;;;;;10.52;55.37;96868.50;6161788;23;20025;-81
2023/03/29 10:04:54;;;;;;;2.63;1.58;;;;;;;10.55;52.39;96867.34;6162178;23;20094;-80
2023/03/29 10:07:23;;;;;;;1.85;1.60;;;;;;;10.60;52.51;96867.63;6161377;23;20109;-83
2023/03/29 10:09:52;;;;;;;4.45;2.00;;;;;;;10.68;53.89;96862.34;6160823;23;20363;-82
2023/03/29 10:12:20;;;;;;;3.15;1.30;;;;;;;10.76;54.48;96858.03;6163446;23;20032;-84
2023/03/29 10:14:51;;;;;;;2.20;1.30;;;;;;;10.84;54.90;96852.75;6163064;23;20025;-77
2023/03/29 10:17:23;;;;;;;1.05;0.93;;;;;;;10.93;52.20;96859.50;6161602;23;20021;-82
2023/03/29 10:19:56;;;;;;;3.38;1.20;;;;;;;11.04;51.51;96866.09;6161697;23;20045;-84
2023/03/29 10:22:29;;;;;;;4.00;1.20;;;;;;;11.16;51.34;96869.91;6162014;23;20057;-85
2023/03/29 10:24:57;;;;;;;1.95;0.90;;;;;;;11.29;52.08;96867.50;6162299;23;20018;-84
2023/03/29 10:27:27;;;;;;;2.38;1.20;;;;;;;11.40;50.79;96870.66;6162501;23;20048;-82
2023/03/29 10:29:58;;;;;;;2.30;1.02;;;;;;;11.47;50.26;96869.72;6161179;23;20019;-80
2023/03/29 10:32:31;;;;;;;4.07;1.30;;;;;;;11.54;49.57;96868.03;6161626;23;20022;-81
2023/03/29 10:35:08;;;;;;;2.28;1.23;;;;;;;11.63;51.60;96865.31;6161295;23;20107;-84
2023/03/29 10:37:42;;;;;;;2.22;1.40;;;;;;;11.71;51.09;96876.47;6163077;23;20052;-89
2023/03/29 10:40:21;;;;;;;2.33;1.50;;;;;;;11.77;51.09;96867.13;6162702;23;20018;-82
2023/03/29 10:42:53;;;;;;;3.17;1.70;;;;;;;11.82;51.22;96866.56;6162860;23;20022;-83
2023/03/29 10:45:25;;;;;;;1.83;1.40;;;;;;;11.82;51.70;96862.13;6163980;23;20392;-84
2023/03/29 10:47:55;;;;;;;2.83;1.30;;;;;;;11.84;49.32;96868.00;6165227;23;20025;-78
2023/03/29 10:50:23;;;;;;;3.75;2.47;;;;;;;11.86;51.21;96860.78;6166841;23;20598;-83
2023/03/29 10:52:52;;;;;;;2.60;2.00;;;;;;;11.87;51.25;96857.19;6165990;23;20018;-81
2023/03/29 10:55:22;;;;;;;2.20;1.45;;;;;;;11.89;53.00;96865.66;6166852;23;20502;-80
2023/03/29 10:57:58;;;;;;;3.63;2.00;;;;;;;11.91;52.79;96863.69;6162489;23;20022;-82
2023/03/29 11:00:34;;;;;;;5.13;2.10;;;;;;;11.95;49.50;96862.31;6164131;23;20048;-84
2023/03/29 11:03:19;;;;;;;3.88;1.60;;;;;;;12.00;48.47;96866.19;6161699;23;20096;-80
2023/03/29 11:05:53;;;;;;;6.85;2.00;;;;;;;12.04;48.64;96872.69;6161617;23;20021;-82
2023/03/29 11:08:33;;;;;;;4.22;1.95;;;;;;;12.06;50.81;96862.84;6163103;23;20073;-82
2023/03/29 11:11:13;;;;;;;2.40;1.92;;;;;;;12.09;48.58;96859.84;6161325;23;20045;-80
2023/03/29 11:13:48;;;;;;;4.32;1.90;;;;;;;12.15;47.95;96859.13;6160480;23;20029;-80
2023/03/29 11:16:26;;;;;;;8.65;3.83;;;;;;;12.25;50.26;96856.22;6159760;23;20022;-80
2023/03/29 11:19:20;;;;;;;16.92;8.98;;;;;;;12.34;49.94;96857.72;6159743;23;20022;-79
2023/03/29 11:21:55;;;;;;;9.02;4.68;;;;;;;12.52;47.41;96850.22;6160372;23;20018;-81
2023/03/29 11:24:46;;;;;;;7.07;2.75;;;;;;;12.87;46.29;96849.50;6160109;23;20104;-79
2023/03/29 11:27:26;;;;;;;5.47;3.60;;;;;;;13.24;46.46;96848.34;6158697;23;20017;-79
2023/03/29 11:30:06;;;;;;;3.50;1.85;;;;;;;13.59;45.60;96846.56;6159185;23;20029;-80
2023/03/29 11:32:41;;;;;;;4.25;2.03;;;;;;;13.87;46.36;96842.25;6161423;23;20025;-80
2023/03/29 11:35:27;;;;;;;6.50;1.55;;;;;;;14.08;44.29;96836.03;6160194;23;20021;-80
2023/03/29 11:38:01;;;;;;;3.55;1.33;;;;;;;14.25;44.53;96832.03;6159743;23;20023;-80
2023/03/29 11:40:43;;;;;;;3.10;1.50;;;;;;;14.36;45.73;96831.44;6158786;23;20032;-82
2023/03/29 11:43:17;;;;;;;6.57;1.55;;;;;;;14.50;45.29;96828.88;6161341;23;20025;-81
2023/03/29 11:45:51;;;;;;;2.50;1.20;;;;;;;14.60;45.27;96819.59;6160485;23;20105;-81
2023/03/29 11:48:23;;;;;;;2.67;1.38;;;;;;;14.76;43.10;96810.53;6159966;23;20021;-85
2023/03/29 11:50:54;;;;;;;2.63;1.50;;;;;;;14.94;44.42;96812.53;6164048;23;20032;-84
2023/03/29 11:53:28;;;;;;;1.98;1.55;;;;;;;15.13;42.36;96808.25;6162382;23;20018;-82
2023/03/29 11:56:06;;;;;;;3.97;1.48;;;;;;;15.31;44.40;96817.31;6164019;23;20467;-82
2023/03/29 11:58:37;;;;;;;2.85;1.67;;;;;;;15.38;41.26;96813.66;6163281;23;20033;-82
2023/03/29 12:01:10;;;;;;;5.60;2.08;;;;;;;15.39;42.38;96824.97;6162597;23;20511;-85
2023/03/29 12:03:44;;;;;;;3.38;1.27;;;;;;;15.30;41.99;96826.19;6162054;23;20018;-83
2023/03/29 12:06:20;;;;;;;2.63;1.20;;;;;;;15.15;41.27;96815.91;6163198;23;20025;-82
2023/03/29 12:08:53;;;;;;;3.45;1.40;;;;;;;15.02;41.06;96819.38;6163166;23;20025;-80
2023/03/29 12:11:29;;;;;;;1.58;1.10;;;;;;;14.95;44.13;96818.59;6160626;23;20025;-84
2023/03/29 12:14:03;;;;;;;3.28;1.15;;;;;;;14.89;43.97;96803.63;6158844;23;20025;-81
2023/03/29 12:16:36;;;;;;;2.88;1.13;;;;;;;14.89;44.99;96804.47;6159946;23;20021;-80
2023/03/29 12:19:15;;;;;;;2.05;0.98;;;;;;;14.94;42.17;96809.91;6159120;23;20104;-82
2023/03/29 12:21:45;;;;;;;1.63;1.15;;;;;;;14.99;42.30;96804.03;6158362;23;20336;-82
2023/03/29 12:24:13;;;;;;;1.50;1.00;;;;;;;15.02;44.19;96814.13;6158657;23;20053;-80
2023/03/29 12:27:03;;;;;;;4.50;1.75;;;;;;;15.06;42.90;96810.06;6159430;23;20120;-80
2023/03/29 12:30:00;;;;;;;2.15;1.33;;;;;;;15.10;42.21;96806.03;6160351;23;20108;-86
2023/03/29 12:32:42;;;;;;;1.95;1.08;;;;;;;15.19;44.04;96794.28;6156085;23;20096;-84
2023/03/29 12:35:24;;;;;;;1.67;1.10;;;;;;;15.32;41.89;96792.63;6160440;23;20033;-83
2023/03/29 12:38:02;;;;;;;4.85;1.60;;;;;;;15.41;43.47;96786.97;6159036;23;20017;-85
2023/03/29 12:40:40;;;;;;;2.45;1.40;;;;;;;15.50;41.63;96784.09;6162521;23;20021;-83
2023/03/29 12:43:19;;;;;;;5.22;1.60;;;;;;;15.53;43.35;96783.69;6163007;23;20022;-86
2023/03/29 12:45:48;;;;;;;2.83;1.50;;;;;;;15.55;41.31;96782.44;6164234;23;20081;-84
2023/03/29 12:48:19;;;;;;;1.92;1.20;;;;;;;15.53;41.45;96781.84;6162354;23;20459;-84
2023/03/29 12:50:50;;;;;;;1.38;0.98;;;;;;;15.55;41.81;96771.94;6161980;23;20033;-86